createdAt,value
2022-11-05T00:00:37.411Z,100219.30
2022-11-05T00:03:46.411Z,100220.45
2022-11-05T00:06:50.850Z,100219.11
2022-11-05T00:09:42.589Z,100217.65
2022-11-05T00:12:49.685Z,100212.23
2022-11-05T00:15:58.011Z,100213.57
2022-11-05T00:19:06.801Z,100210.84
2022-11-05T00:22:14.840Z,100205.95
2022-11-05T00:25:18.278Z,100204.00
2022-11-05T00:28:08.937Z,100197.48
2022-11-05T00:31:05.437Z,100195.03
2022-11-05T00:33:55.269Z,100187.98
2022-11-05T00:36:45.232Z,100187.39
2022-11-05T00:39:36.242Z,100185.29
2022-11-05T00:42:44.973Z,100181.95
2022-11-05T00:45:35.435Z,100177.88
2022-11-05T00:48:43.567Z,100176.50
2022-11-05T00:51:34.106Z,100183.86
2022-11-05T00:54:24.743Z,100178.64
2022-11-05T00:57:16.168Z,100184.56
2022-11-05T01:00:08.468Z,100191.21
2022-11-05T01:03:00.474Z,100188.84
2022-11-05T01:05:53.195Z,100198.52
2022-11-05T01:08:45.512Z,100205.34
2022-11-05T01:11:37.276Z,100204.45
2022-11-05T01:14:27.784Z,100210.45
2022-11-05T01:17:18.458Z,100211.18
2022-11-05T01:20:09.773Z,100209.40
2022-11-05T01:23:01.047Z,100207.45
2022-11-05T01:25:52.482Z,100213.76
2022-11-05T01:28:43.089Z,100216.39
2022-11-05T01:31:33.093Z,100220.80
2022-11-05T01:34:23.458Z,100215.73
2022-11-05T01:37:14.316Z,100217.15
2022-11-05T01:40:05.454Z,100224.48
2022-11-05T01:42:56.116Z,100232.50
2022-11-05T01:45:49.208Z,100236.90
2022-11-05T01:48:40.852Z,100246.09
2022-11-05T01:51:32.623Z,100252.52
2022-11-05T01:54:28.963Z,100250.09
2022-11-05T01:57:20.317Z,100255.36
2022-11-05T02:00:14.202Z,100251.73
2022-11-05T02:03:05.918Z,100254.14
2022-11-05T02:05:58.905Z,100246.56
2022-11-05T02:08:58.610Z,100242.54
2022-11-05T02:11:50.021Z,100246.52
2022-11-05T02:14:40.470Z,100249.27
2022-11-05T02:17:43.916Z,100246.39
2022-11-05T02:20:46.794Z,100245.17
2022-11-05T02:24:09.449Z,100244.69
2022-11-05T02:27:14.841Z,100248.87
2022-11-05T02:30:36.775Z,100260.58
2022-11-05T02:33:39.160Z,100271.09
2022-11-05T02:36:40.663Z,100268.67
2022-11-05T02:39:48.385Z,100273.95
2022-11-05T02:42:45.417Z,100278.41
2022-11-05T02:45:45.613Z,100288.14
2022-11-05T02:48:44.030Z,100296.25
2022-11-05T02:51:41.621Z,100300.70
2022-11-05T02:54:38.348Z,100304.67
2022-11-05T02:57:36.189Z,100307.08
2022-11-05T03:00:46.287Z,100306.04
2022-11-05T03:03:41.150Z,100317.32
2022-11-05T03:07:00.525Z,100321.67
2022-11-05T03:10:10.811Z,100334.34
2022-11-05T03:13:12.559Z,100346.00
2022-11-05T03:16:08.888Z,100351.50
2022-11-05T03:19:09.250Z,100357.80
2022-11-05T03:22:03.994Z,100361.06
2022-11-05T03:24:59.566Z,100358.01
2022-11-05T03:27:54.150Z,100361.35
2022-11-05T03:30:46.347Z,100366.61
2022-11-05T03:33:38.862Z,100365.85
2022-11-05T03:36:33.220Z,100366.85
2022-11-05T03:39:29.375Z,100373.77
2022-11-05T03:42:22.997Z,100378.16
2022-11-05T03:45:18.677Z,100374.23
2022-11-05T03:48:13.479Z,100379.80
2022-11-05T03:51:09.661Z,100383.24
2022-11-05T03:54:04.725Z,100386.21
2022-11-05T03:57:05.165Z,100394.41
2022-11-05T03:59:55.704Z,100401.23
2022-11-05T04:02:46.416Z,100399.13
2022-11-05T04:05:37.700Z,100396.48
2022-11-05T04:08:46.890Z,100403.55
2022-11-05T04:11:54.856Z,100409.20
2022-11-05T04:14:45.344Z,100412.13
2022-11-05T04:17:36.180Z,100418.66
2022-11-05T04:20:55.566Z,100422.45
2022-11-05T04:24:04.244Z,100426.79
2022-11-05T04:26:54.554Z,100426.30
2022-11-05T04:30:05.287Z,100424.76
2022-11-05T04:33:03.780Z,100426.21
2022-11-05T04:35:53.749Z,100426.40
2022-11-05T04:38:44.379Z,100425.35
2022-11-05T04:41:35.032Z,100427.13
2022-11-05T04:44:25.631Z,100437.38
2022-11-05T04:47:16.227Z,100441.05
2022-11-05T04:50:07.235Z,100452.00
2022-11-05T04:52:57.614Z,100461.45
2022-11-05T04:55:47.740Z,100464.85
2022-11-05T04:58:41.914Z,100473.74
2022-11-05T05:01:32.075Z,100479.12
2022-11-05T05:04:23.290Z,100485.38
2022-11-05T05:07:13.905Z,100480.56
2022-11-05T05:10:04.251Z,100482.88
2022-11-05T05:12:54.432Z,100482.09
2022-11-05T05:15:44.585Z,100483.54
2022-11-05T05:18:34.807Z,100484.77
2022-11-05T05:21:41.685Z,100482.13
2022-11-05T05:24:32.627Z,100484.47
2022-11-05T05:27:23.419Z,100489.29
2022-11-05T05:30:15.787Z,100493.30
2022-11-05T05:33:06.995Z,100500.79
2022-11-05T05:36:00.309Z,100504.81
2022-11-05T05:38:51.968Z,100516.41
2022-11-05T05:41:42.587Z,100527.13
2022-11-05T05:44:33.225Z,100523.01
2022-11-05T05:47:23.806Z,100531.95
2022-11-05T05:50:14.720Z,100538.84
2022-11-05T05:53:05.298Z,100548.06
2022-11-05T05:55:57.614Z,100555.71
2022-11-05T05:58:48.762Z,100563.83
2022-11-05T06:01:40.150Z,100570.29
2022-11-05T06:04:31.024Z,100576.22
2022-11-05T06:07:21.311Z,100575.10
2022-11-05T06:10:12.809Z,100581.17
2022-11-05T06:13:04.083Z,100585.93
2022-11-05T06:15:55.770Z,100587.60
2022-11-05T06:18:46.273Z,100595.79
2022-11-05T06:21:37.184Z,100595.38
2022-11-05T06:24:28.455Z,100594.77
2022-11-05T06:27:18.540Z,100602.99
2022-11-05T06:30:12.570Z,100608.02
2022-11-05T06:33:07.407Z,100615.67
2022-11-05T06:35:59.553Z,100624.66
2022-11-05T06:38:50.000Z,100626.60
2022-11-05T06:42:03.997Z,100634.48
2022-11-05T06:44:50.285Z,100634.73
2022-11-05T06:47:41.219Z,100638.27
2022-11-05T06:50:31.301Z,100644.27
2022-11-05T06:53:22.328Z,100651.92
2022-11-05T06:56:13.044Z,100654.95
2022-11-05T06:59:03.959Z,100658.96
2022-11-05T07:01:54.813Z,100667.11
2022-11-05T07:04:44.928Z,100672.86
2022-11-05T07:07:34.962Z,100675.88
2022-11-05T07:10:25.987Z,100678.66
2022-11-05T07:13:16.609Z,100678.70
2022-11-05T07:16:08.784Z,100676.09
2022-11-05T07:18:59.255Z,100681.98
2022-11-05T07:21:50.903Z,100691.47
2022-11-05T07:24:41.650Z,100686.11
2022-11-05T07:27:31.876Z,100697.06
2022-11-05T07:30:22.552Z,100705.67
2022-11-05T07:33:13.443Z,100708.17
2022-11-05T07:36:04.692Z,100709.48
2022-11-05T07:39:00.040Z,100712.14
2022-11-05T07:41:51.094Z,100713.15
2022-11-05T07:44:42.017Z,100712.56
2022-11-05T07:47:32.931Z,100715.04
2022-11-05T07:50:25.190Z,100722.85
2022-11-05T07:53:16.580Z,100726.67
2022-11-05T07:56:09.481Z,100730.42
2022-11-05T07:59:00.419Z,100726.42
2022-11-05T08:01:50.957Z,100723.98
2022-11-05T08:04:42.558Z,100730.48
2022-11-05T08:07:35.303Z,100739.99
2022-11-05T08:10:26.675Z,100748.15
2022-11-05T08:13:18.202Z,100744.13
2022-11-05T08:16:11.005Z,100747.23
2022-11-05T08:19:01.391Z,100743.86
2022-11-05T08:21:51.827Z,100749.45
2022-11-05T08:24:42.040Z,100756.75
2022-11-05T08:27:32.566Z,100763.85
2022-11-05T08:30:23.434Z,100761.19
2022-11-05T08:33:16.024Z,100759.98
2022-11-05T08:36:07.838Z,100773.85
2022-11-05T08:38:58.504Z,100769.58
2022-11-05T08:41:48.544Z,100774.19
2022-11-05T08:44:39.314Z,100776.73
2022-11-05T08:47:29.845Z,100781.23
2022-11-05T08:50:19.948Z,100775.61
2022-11-05T08:53:11.783Z,100785.13
2022-11-05T08:56:02.845Z,100789.20
2022-11-05T08:58:53.181Z,100797.96
2022-11-05T09:01:43.720Z,100796.81
2022-11-05T09:04:34.035Z,100788.80
2022-11-05T09:07:24.620Z,100796.76
2022-11-05T09:10:14.871Z,100800.98
2022-11-05T09:13:04.824Z,100807.23
2022-11-05T09:15:54.932Z,100806.63
2022-11-05T09:18:48.029Z,100810.13
2022-11-05T09:21:38.508Z,100816.27
2022-11-05T09:24:28.927Z,100822.66
2022-11-05T09:27:19.044Z,100830.89
2022-11-05T09:30:15.020Z,100835.08
2022-11-05T09:33:05.566Z,100839.54
2022-11-05T09:35:56.264Z,100837.64
2022-11-05T09:38:46.739Z,100841.20
2022-11-05T09:41:40.032Z,100849.13
2022-11-05T09:44:42.877Z,100853.06
2022-11-05T09:47:38.688Z,100848.77
2022-11-05T09:50:35.542Z,100843.73
2022-11-05T09:53:27.211Z,100847.08
2022-11-05T09:56:28.203Z,100854.20
2022-11-05T09:59:23.157Z,100854.35
2022-11-05T10:02:19.626Z,100864.29
2022-11-05T10:05:14.071Z,100862.94
2022-11-05T10:08:07.510Z,100864.66
2022-11-05T10:11:02.888Z,100862.88
2022-11-05T10:13:58.586Z,100867.63
2022-11-05T10:16:54.227Z,100871.23
2022-11-05T10:19:49.620Z,100873.19
2022-11-05T10:22:43.895Z,100870.76
2022-11-05T10:25:42.934Z,100869.95
2022-11-05T10:28:35.815Z,100863.82
2022-11-05T10:31:34.296Z,100868.07
2022-11-05T10:34:28.993Z,100862.89
2022-11-05T10:37:20.227Z,100863.77
2022-11-05T10:40:18.597Z,100868.19
2022-11-05T10:43:12.417Z,100862.57
2022-11-05T10:46:16.152Z,100855.93
2022-11-05T10:49:24.149Z,100858.14
2022-11-05T10:52:24.011Z,100850.11
2022-11-05T10:55:22.805Z,100849.84
2022-11-05T10:58:35.394Z,100848.38
2022-11-05T11:01:26.557Z,100849.34
2022-11-05T11:04:22.352Z,100856.71
2022-11-05T11:07:24.470Z,100857.95
2022-11-05T11:10:23.124Z,100858.27
2022-11-05T11:13:23.901Z,100859.87
2022-11-05T11:16:24.088Z,100866.82
2022-11-05T11:19:28.788Z,100866.23
2022-11-05T11:22:23.032Z,100863.96
2022-11-05T11:25:28.011Z,100864.80
2022-11-05T11:28:22.985Z,100866.88
2022-11-05T11:31:16.248Z,100864.35
2022-11-05T11:34:14.145Z,100862.73
2022-11-05T11:37:09.408Z,100863.38
2022-11-05T11:40:06.454Z,100858.21
2022-11-05T11:42:59.476Z,100857.88
2022-11-05T11:45:52.846Z,100860.32
2022-11-05T11:48:45.917Z,100859.27
2022-11-05T11:51:40.954Z,100852.52
2022-11-05T11:54:32.230Z,100853.33
2022-11-05T11:57:29.122Z,100850.82
2022-11-05T12:00:27.170Z,100851.73
2022-11-05T12:03:30.625Z,100848.21
2022-11-05T12:06:28.782Z,100845.10
2022-11-05T12:09:26.581Z,100843.19
2022-11-05T12:12:18.157Z,100838.22
2022-11-05T12:15:26.234Z,100835.61
2022-11-05T12:18:26.190Z,100835.52
2022-11-05T12:21:41.052Z,100841.16
2022-11-05T12:24:55.700Z,100838.75
2022-11-05T12:28:05.112Z,100832.76
2022-11-05T12:31:01.671Z,100831.52
2022-11-05T12:34:02.873Z,100823.21
2022-11-05T12:37:11.457Z,100818.13
2022-11-05T12:40:30.470Z,100818.09
2022-11-05T12:43:32.325Z,100815.41
2022-11-05T12:46:30.577Z,100816.00
2022-11-05T12:49:48.674Z,100823.08
2022-11-05T12:53:01.878Z,100819.73
2022-11-05T12:55:52.941Z,100814.52
2022-11-05T12:58:48.288Z,100822.33
2022-11-05T13:01:43.164Z,100813.03
2022-11-05T13:04:44.938Z,100817.39
2022-11-05T13:07:40.282Z,100822.08
2022-11-05T13:10:36.142Z,100826.52
2022-11-05T13:13:32.322Z,100824.47
2022-11-05T13:16:29.176Z,100828.83
2022-11-05T13:19:26.138Z,100825.18
2022-11-05T13:22:24.235Z,100826.79
2022-11-05T13:25:19.956Z,100830.16
2022-11-05T13:28:17.659Z,100828.68
2022-11-05T13:31:11.981Z,100825.35
2022-11-05T13:34:06.034Z,100830.17
2022-11-05T13:37:33.507Z,100830.60
2022-11-05T13:40:31.989Z,100826.01
2022-11-05T13:43:35.590Z,100832.89
2022-11-05T13:46:39.319Z,100831.52
2022-11-05T13:49:46.333Z,100837.81
2022-11-05T13:52:57.827Z,100840.23
2022-11-05T13:56:03.359Z,100839.67
2022-11-05T13:59:06.795Z,100838.35
2022-11-05T14:02:00.518Z,100836.86
2022-11-05T14:05:00.576Z,100837.59
2022-11-05T14:07:53.640Z,100837.77
2022-11-05T14:10:46.073Z,100838.17
2022-11-05T14:13:39.997Z,100836.46
2022-11-05T14:16:48.003Z,100833.45
2022-11-05T14:19:51.594Z,100837.63
2022-11-05T14:22:43.224Z,100841.74
2022-11-05T14:26:12.655Z,100839.42
2022-11-05T14:29:25.244Z,100838.98
2022-11-05T14:32:53.482Z,100846.05
2022-11-05T14:35:43.877Z,100847.16
2022-11-05T14:38:34.525Z,100843.79
2022-11-05T14:41:24.891Z,100845.43
2022-11-05T14:44:16.656Z,100846.28
2022-11-05T14:47:20.859Z,100846.36
2022-11-05T14:50:20.564Z,100853.15
2022-11-05T14:53:29.692Z,100859.26
2022-11-05T14:56:21.603Z,100860.30
2022-11-05T14:59:35.571Z,100865.54
2022-11-05T15:02:33.405Z,100866.65
2022-11-05T15:05:52.887Z,100867.26
2022-11-05T15:09:08.677Z,100873.73
2022-11-05T15:12:13.177Z,100884.63
2022-11-05T15:15:05.283Z,100885.69
2022-11-05T15:18:18.304Z,100888.90
2022-11-05T15:21:14.774Z,100887.76
2022-11-05T15:24:05.703Z,100893.45
2022-11-05T15:27:01.040Z,100898.73
2022-11-05T15:29:50.700Z,100904.18
2022-11-05T15:32:42.222Z,100909.09
2022-11-05T15:35:39.417Z,100911.57
2022-11-05T15:38:34.100Z,100916.36
2022-11-05T15:41:30.034Z,100914.86
2022-11-05T15:44:33.210Z,100916.48
2022-11-05T15:47:26.270Z,100915.48
2022-11-05T15:50:18.357Z,100920.42
2022-11-05T15:56:33.797Z,100924.29
2022-11-05T15:59:26.025Z,100926.77
2022-11-05T16:02:31.135Z,100927.82
2022-11-05T16:05:22.489Z,100926.15
2022-11-05T16:08:20.564Z,100928.96
2022-11-05T16:11:21.270Z,100933.96
2022-11-05T16:14:20.697Z,100934.02
2022-11-05T16:17:22.119Z,100942.95
2022-11-05T16:20:25.065Z,100949.77
2022-11-05T16:23:40.434Z,100958.48
2022-11-05T16:27:01.156Z,100964.00
2022-11-05T16:29:52.884Z,100966.40
2022-11-05T16:32:43.298Z,100971.30
2022-11-05T16:35:33.815Z,100971.97
2022-11-05T16:38:25.074Z,100972.86
2022-11-05T16:41:19.255Z,100980.28
2022-11-05T16:44:10.382Z,100982.52
2022-11-05T16:47:00.802Z,100984.45
2022-11-05T16:49:52.238Z,100988.08
2022-11-05T16:52:42.561Z,100990.06
2022-11-05T16:55:35.114Z,100998.83
2022-11-05T16:58:27.646Z,100999.21
2022-11-05T17:01:20.545Z,101001.00
2022-11-05T17:04:13.490Z,101005.21
2022-11-05T17:07:03.444Z,101012.50
2022-11-05T17:09:53.494Z,101021.02
2022-11-05T17:12:44.195Z,101028.48
2022-11-05T17:15:36.158Z,101031.23
2022-11-05T17:18:26.633Z,101030.65
2022-11-05T17:21:17.264Z,101028.34
2022-11-05T17:24:09.011Z,101027.67
2022-11-05T17:26:59.610Z,101034.05
2022-11-05T17:29:49.905Z,101034.33
2022-11-05T17:32:40.217Z,101037.44
2022-11-05T17:35:31.284Z,101041.80
2022-11-05T17:38:22.076Z,101042.70
2022-11-05T17:41:18.189Z,101043.42
2022-11-05T17:44:08.627Z,101047.06
2022-11-05T17:46:59.239Z,101051.33
2022-11-05T17:49:49.469Z,101050.13
2022-11-05T17:52:40.142Z,101057.04
2022-11-05T17:55:29.928Z,101056.08
2022-11-05T17:58:20.638Z,101059.15
2022-11-05T18:01:25.930Z,101057.63
2022-11-05T18:04:16.251Z,101056.77
2022-11-05T18:07:06.523Z,101061.93
2022-11-05T18:09:56.624Z,101068.27
2022-11-05T18:12:47.474Z,101069.20
2022-11-05T18:15:41.541Z,101072.77
2022-11-05T18:18:32.794Z,101078.86
2022-11-05T18:21:23.019Z,101082.34
2022-11-05T18:24:13.266Z,101083.85
2022-11-05T18:27:04.200Z,101084.05
2022-11-05T18:29:54.610Z,101084.14
2022-11-05T18:32:45.487Z,101084.27
2022-11-05T18:35:41.090Z,101083.95
2022-11-05T18:38:31.526Z,101084.45
2022-11-05T18:41:22.314Z,101087.06
2022-11-05T18:44:15.797Z,101090.00
2022-11-05T18:47:07.015Z,101089.02
2022-11-05T18:49:57.618Z,101095.65
2022-11-05T18:52:47.820Z,101101.95
2022-11-05T18:55:39.852Z,101098.08
2022-11-05T18:58:31.407Z,101095.89
2022-11-05T19:01:23.004Z,101095.54
2022-11-05T19:04:14.173Z,101104.14
2022-11-05T19:07:05.337Z,101103.66
2022-11-05T19:09:56.599Z,101110.61
2022-11-05T19:12:46.684Z,101110.10
2022-11-05T19:15:37.179Z,101111.89
2022-11-05T19:18:27.288Z,101116.88
2022-11-05T19:21:20.740Z,101116.88
2022-11-05T19:24:16.857Z,101119.08
2022-11-05T19:27:08.776Z,101116.80
2022-11-05T19:29:59.462Z,101120.52
2022-11-05T19:32:49.598Z,101117.88
2022-11-05T19:35:43.003Z,101118.98
2022-11-05T19:38:33.858Z,101123.96
2022-11-05T19:41:24.556Z,101125.60
2022-11-05T19:44:15.366Z,101131.30
2022-11-05T19:47:05.610Z,101129.89
2022-11-05T19:49:56.758Z,101130.31
2022-11-05T19:52:46.856Z,101134.87
2022-11-05T19:55:40.094Z,101140.06
2022-11-05T19:58:30.826Z,101144.00
2022-11-05T20:01:22.496Z,101149.63
2022-11-05T20:04:13.809Z,101151.61
2022-11-05T20:07:04.510Z,101149.70
2022-11-05T20:09:54.627Z,101151.16
2022-11-05T20:12:45.124Z,101148.02
2022-11-05T20:15:38.310Z,101152.17
2022-11-05T20:18:28.928Z,101152.23
2022-11-05T20:21:19.155Z,101156.20
2022-11-05T20:24:11.809Z,101163.14
2022-11-05T20:27:02.056Z,101169.40
2022-11-05T20:29:52.637Z,101169.03
2022-11-05T20:32:42.784Z,101171.02
2022-11-05T20:35:33.092Z,101175.92
2022-11-05T20:38:23.907Z,101173.46
2022-11-05T20:41:15.010Z,101175.33
2022-11-05T20:44:05.198Z,101175.88
2022-11-05T20:46:55.626Z,101182.18
2022-11-05T20:49:45.471Z,101183.48
2022-11-05T20:52:36.671Z,101184.56
2022-11-05T20:55:27.002Z,101187.27
2022-11-05T20:58:19.109Z,101193.35
2022-11-05T21:01:09.451Z,101194.36
2022-11-05T21:03:59.996Z,101196.04
2022-11-05T21:06:51.009Z,101195.11
2022-11-05T21:09:41.292Z,101194.04
2022-11-05T21:12:31.684Z,101197.75
2022-11-05T21:15:23.423Z,101197.85
2022-11-05T21:18:14.122Z,101195.88
2022-11-05T21:21:08.996Z,101194.49
2022-11-05T21:24:00.050Z,101196.64
2022-11-05T21:26:51.062Z,101195.35
2022-11-05T21:29:41.854Z,101198.83
2022-11-05T21:32:36.772Z,101204.83
2022-11-05T21:35:27.541Z,101207.67
2022-11-05T21:38:19.350Z,101205.48
2022-11-05T21:41:11.730Z,101208.77
2022-11-05T21:44:02.330Z,101208.81
2022-11-05T21:46:53.508Z,101210.35
2022-11-05T21:49:44.417Z,101204.62
2022-11-05T21:52:53.011Z,101206.21
2022-11-05T21:56:06.127Z,101209.27
2022-11-05T21:59:17.357Z,101208.95
2022-11-05T22:02:09.688Z,101212.77
2022-11-05T22:05:02.513Z,101214.77
2022-11-05T22:07:52.602Z,101218.93
2022-11-05T22:10:42.936Z,101213.55
2022-11-05T22:13:34.079Z,101213.55
2022-11-05T22:16:28.000Z,101211.59
2022-11-05T22:19:18.585Z,101215.53
2022-11-05T22:22:09.791Z,101213.17
2022-11-05T22:25:00.145Z,101210.98
2022-11-05T22:27:50.008Z,101205.66
2022-11-05T22:30:40.400Z,101206.50
2022-11-05T22:33:32.316Z,101207.16
2022-11-05T22:36:22.364Z,101208.43
2022-11-05T22:39:13.804Z,101208.73
2022-11-05T22:42:08.304Z,101216.88
2022-11-05T22:44:59.372Z,101217.92
2022-11-05T22:47:49.471Z,101216.55
2022-11-05T22:50:39.725Z,101210.21
2022-11-05T22:53:30.332Z,101204.50
2022-11-05T22:56:22.871Z,101202.08
2022-11-05T22:59:15.677Z,101203.41
2022-11-05T23:02:09.784Z,101202.63
2022-11-05T23:05:00.549Z,101205.20
2022-11-05T23:08:08.497Z,101210.64
2022-11-05T23:11:16.067Z,101213.32
2022-11-05T23:14:07.102Z,101214.23
2022-11-05T23:17:15.007Z,101215.45
2022-11-05T23:20:25.758Z,101217.09
2022-11-05T23:23:36.263Z,101214.06
2022-11-05T23:26:43.799Z,101221.05
2022-11-05T23:29:36.388Z,101223.95
2022-11-05T23:32:27.204Z,101227.47
2022-11-05T23:35:18.452Z,101229.18
2022-11-05T23:38:25.965Z,101230.58
2022-11-05T23:41:33.785Z,101230.28
2022-11-05T23:44:41.758Z,101236.34
2022-11-05T23:47:50.712Z,101239.70
2022-11-05T23:50:41.232Z,101245.61
2022-11-05T23:53:33.229Z,101248.90
2022-11-05T23:56:24.249Z,101250.85
2022-11-05T23:59:14.975Z,101250.82
